Glogow, Poland
Current Conditions -  °F | °C
As of 8:00 PM on Friday 24 Oct 2014 (Local Time) from EPZG Reporting Station
Haze Haze  
Wind Chill: 37°   Ceiling: 600
Heat Index: 41°   Visibility: 1.9mi
Dew Point: 39°   Wind: 6mph
Humidity: 93%   Direction: 110°ESE
Pressure: 30.27"   Gusts: NA
Location:  51.67°N, 16.08°E
Report Text: EPZG 241800Z 11005KT 3100 BR OVC006 05/04 Q1025
Loading
Personal Weather Stations






























Interactive Weather Map
Tropical Storm Tracking
New forecast layout! Learn more

10-Day Weather Forecast

Advertisements
Track Severe Weather on mobile